Terminal Aerodrome Forecast
Issued by NWS

Home | Current Version | Previous Version | Text Only | Print | Product List | Glossary On
Versions: 1 2 3 4 5 6 7 8 9 10 11 12 13 14 15 16 17 18 19 20 21
244
FTUS43 KGRB 261120
TAFAUW
TAF
KAUW 261120Z 2612/2712 12006KT P6SM SCT005 OVC011
      TEMPO 2612/2614 4SM BR BKN005
     FM261400 20006KT P6SM SHRA SCT015 OVC025
      TEMPO 2614/2618 5SM SHRA BKN015
     FM261800 21008G14KT P6SM OVC035
     FM270000 31008KT P6SM OVC017
     FM270300 33008KT P6SM -RA OVC009=

USA.gov is the U.S. government's official web portal to all federal, state and local government web resources and services.